sensor_id;sensor_type;location;lat;lon;timestamp;pressure;altitude;pressure_sealevel;temperature;humidity
79589;BME280;69067;51.930;4.492;2023-07-20T00:01:24;101430.25;;;26.70;42.90
79589;BME280;69067;51.930;4.492;2023-07-20T00:03:50;101426.47;;;26.71;42.51
79589;BME280;69067;51.930;4.492;2023-07-20T00:06:25;101436.09;;;26.80;41.91
79589;BME280;69067;51.930;4.492;2023-07-20T00:08:54;101431.50;;;26.74;42.45
79589;BME280;69067;51.930;4.492;2023-07-20T00:11:26;101431.31;;;26.76;42.63
79589;BME280;69067;51.930;4.492;2023-07-20T00:13:52;101438.22;;;26.72;42.03
79589;BME280;69067;51.930;4.492;2023-07-20T00:16:18;101433.59;;;26.72;42.73
79589;BME280;69067;51.930;4.492;2023-07-20T00:18:44;101437.56;;;26.76;42.54
79589;BME280;69067;51.930;4.492;2023-07-20T00:21:10;101442.22;;;26.76;42.53
79589;BME280;69067;51.930;4.492;2023-07-20T00:23:36;101444.97;;;26.76;42.50
79589;BME280;69067;51.930;4.492;2023-07-20T00:26:01;101438.69;;;26.69;43.08
79589;BME280;69067;51.930;4.492;2023-07-20T00:28:27;101450.84;;;26.73;42.05
79589;BME280;69067;51.930;4.492;2023-07-20T00:30:54;101444.53;;;26.72;42.12
79589;BME280;69067;51.930;4.492;2023-07-20T00:33:20;101440.13;;;26.71;43.03
79589;BME280;69067;51.930;4.492;2023-07-20T00:35:45;101448.31;;;26.71;42.15
79589;BME280;69067;51.930;4.492;2023-07-20T00:38:11;101443.91;;;26.70;42.32
79589;BME280;69067;51.930;4.492;2023-07-20T00:40:38;101447.91;;;26.74;42.63
79589;BME280;69067;51.930;4.492;2023-07-20T00:43:05;101443.28;;;26.75;41.91
79589;BME280;69067;51.930;4.492;2023-07-20T00:45:33;101453.56;;;26.73;42.43
79589;BME280;69067;51.930;4.492;2023-07-20T00:48:01;101435.72;;;26.70;42.51
79589;BME280;69067;51.930;4.492;2023-07-20T00:50:28;101432.97;;;26.70;42.56
79589;BME280;69067;51.930;4.492;2023-07-20T00:52:55;101436.78;;;26.69;42.09
79589;BME280;69067;51.930;4.492;2023-07-20T00:55:23;101442.25;;;26.69;42.19
79589;BME280;69067;51.930;4.492;2023-07-20T00:57:50;101444.53;;;26.72;42.12
79589;BME280;69067;51.930;4.492;2023-07-20T01:00:16;101444.13;;;26.75;42.26
79589;BME280;69067;51.930;4.492;2023-07-20T01:02:43;101448.31;;;26.71;42.54
79589;BME280;69067;51.930;4.492;2023-07-20T01:05:09;101446.88;;;26.69;42.58
79589;BME280;69067;51.930;4.492;2023-07-20T01:07:38;101450.00;;;26.72;42.58
79589;BME280;69067;51.930;4.492;2023-07-20T01:12:47;101445.41;;;26.66;42.75
79589;BME280;69067;51.930;4.492;2023-07-20T01:15:14;101446.03;;;26.68;42.56
79589;BME280;69067;51.930;4.492;2023-07-20T01:17:40;101445.78;;;26.70;42.63
79589;BME280;69067;51.930;4.492;2023-07-20T01:20:09;101446.63;;;26.70;42.35
79589;BME280;69067;51.930;4.492;2023-07-20T01:29:16;101450.44;;;26.69;42.80
79589;BME280;69067;51.930;4.492;2023-07-20T01:31:52;101454.44;;;26.66;42.51
79589;BME280;69067;51.930;4.492;2023-07-20T01:34:20;101459.25;;;26.71;42.53
79589;BME280;69067;51.930;4.492;2023-07-20T01:36:50;101453.78;;;26.71;42.21
79589;BME280;69067;51.930;4.492;2023-07-20T01:39:19;101455.06;;;26.69;42.86
79589;BME280;69067;51.930;4.492;2023-07-20T01:41:46;101458.66;;;26.69;42.61
79589;BME280;69067;51.930;4.492;2023-07-20T01:44:13;101456.13;;;26.67;42.70
79589;BME280;69067;51.930;4.492;2023-07-20T01:46:38;101464.31;;;26.67;42.34
79589;BME280;69067;51.930;4.492;2023-07-20T01:49:04;101465.97;;;26.75;42.42
79589;BME280;69067;51.930;4.492;2023-07-20T01:51:30;101462.63;;;26.73;42.83
79589;BME280;69067;51.930;4.492;2023-07-20T01:53:56;101462.84;;;26.65;42.66
79589;BME280;69067;51.930;4.492;2023-07-20T01:56:22;101466.84;;;26.69;41.92
79589;BME280;69067;51.930;4.492;2023-07-20T01:58:48;101460.94;;;26.65;42.85
79589;BME280;69067;51.930;4.492;2023-07-20T02:01:13;101469.34;;;26.64;43.15
79589;BME280;69067;51.930;4.492;2023-07-20T02:03:39;101464.31;;;26.67;42.98
79589;BME280;69067;51.930;4.492;2023-07-20T02:06:05;101466.41;;;26.65;42.33
79589;BME280;69067;51.930;4.492;2023-07-20T02:08:31;101465.38;;;26.66;42.07
79589;BME280;69067;51.930;4.492;2023-07-20T02:10:56;101457.38;;;26.65;41.94
79589;BME280;69067;51.930;4.492;2023-07-20T02:13:23;101464.53;;;26.66;42.19
79589;BME280;69067;51.930;4.492;2023-07-20T02:15:49;101462.19;;;26.63;42.62
79589;BME280;69067;51.930;4.492;2023-07-20T02:18:16;101466.00;;;26.62;41.87
79589;BME280;69067;51.930;4.492;2023-07-20T02:20:42;101460.31;;;26.63;42.23
79589;BME280;69067;51.930;4.492;2023-07-20T02:23:08;101465.59;;;26.58;42.74
79589;BME280;69067;51.930;4.492;2023-07-20T02:25:36;101472.09;;;26.64;41.83
79589;BME280;69067;51.930;4.492;2023-07-20T02:28:01;101464.94;;;26.63;42.27
79589;BME280;69067;51.930;4.492;2023-07-20T02:30:28;101473.97;;;26.70;42.54
79589;BME280;69067;51.930;4.492;2023-07-20T02:32:54;101468.94;;;26.67;42.29
79589;BME280;69067;51.930;4.492;2023-07-20T02:35:19;101475.25;;;26.61;42.91
79589;BME280;69067;51.930;4.492;2023-07-20T02:37:45;101465.56;;;26.65;42.18
79589;BME280;69067;51.930;4.492;2023-07-20T02:40:11;101463.50;;;26.60;42.15
79589;BME280;69067;51.930;4.492;2023-07-20T02:42:37;101468.75;;;26.62;42.56
79589;BME280;69067;51.930;4.492;2023-07-20T02:45:03;101480.06;;;26.65;42.10
79589;BME280;69067;51.930;4.492;2023-07-20T02:47:29;101475.03;;;26.56;42.25
79589;BME280;69067;51.930;4.492;2023-07-20T02:49:56;101480.09;;;26.59;42.75
79589;BME280;69067;51.930;4.492;2023-07-20T02:52:22;101485.97;;;26.56;41.80
79589;BME280;69067;51.930;4.492;2023-07-20T02:54:48;101477.78;;;26.56;42.53
79589;BME280;69067;51.930;4.492;2023-07-20T02:57:14;101486.59;;;26.58;42.27
79589;BME280;69067;51.930;4.492;2023-07-20T02:59:40;101488.09;;;26.54;42.42
79589;BME280;69067;51.930;4.492;2023-07-20T03:02:05;101486.19;;;26.54;42.69
79589;BME280;69067;51.930;4.492;2023-07-20T03:04:35;101485.34;;;26.54;42.36
79589;BME280;69067;51.930;4.492;2023-07-20T03:07:04;101492.28;;;26.56;42.24
79589;BME280;69067;51.930;4.492;2023-07-20T03:09:30;101493.56;;;26.54;42.88
79589;BME280;69067;51.930;4.492;2023-07-20T03:11:56;101494.78;;;26.58;42.14
79589;BME280;69067;51.930;4.492;2023-07-20T03:14:21;101501.31;;;26.50;42.79
79589;BME280;69067;51.930;4.492;2023-07-20T03:16:49;101499.88;;;26.48;41.88
79589;BME280;69067;51.930;4.492;2023-07-20T03:19:15;101494.59;;;26.53;42.57
79589;BME280;69067;51.930;4.492;2023-07-20T03:21:41;101501.75;;;26.54;41.88
79589;BME280;69067;51.930;4.492;2023-07-20T03:24:07;101496.28;;;26.54;41.88
79589;BME280;69067;51.930;4.492;2023-07-20T03:26:35;101499.44;;;26.51;42.33
79589;BME280;69067;51.930;4.492;2023-07-20T03:29:03;101498.78;;;26.55;42.64
79589;BME280;69067;51.930;4.492;2023-07-20T03:31:29;101501.75;;;26.54;42.25
79589;BME280;69067;51.930;4.492;2023-07-20T03:33:55;101496.88;;;26.56;42.33
79589;BME280;69067;51.930;4.492;2023-07-20T03:36:21;101498.16;;;26.53;41.90
79589;BME280;69067;51.930;4.492;2023-07-20T03:38:47;101497.53;;;26.51;41.92
79589;BME280;69067;51.930;4.492;2023-07-20T03:41:13;101494.59;;;26.53;42.63
79589;BME280;69067;51.930;4.492;2023-07-20T03:43:41;101496.69;;;26.51;42.31
79589;BME280;69067;51.930;4.492;2023-07-20T03:46:07;101497.13;;;26.54;42.52
79589;BME280;69067;51.930;4.492;2023-07-20T03:48:33;101493.56;;;26.47;41.45
79589;BME280;69067;51.930;4.492;2023-07-20T03:50:59;101504.03;;;26.50;41.66
79589;BME280;69067;51.930;4.492;2023-07-20T03:53:26;101506.38;;;26.47;42.40
79589;BME280;69067;51.930;4.492;2023-07-20T03:55:52;101506.97;;;26.49;42.23
79589;BME280;69067;51.930;4.492;2023-07-20T03:58:19;101510.16;;;26.46;41.73
79589;BME280;69067;51.930;4.492;2023-07-20T04:00:48;101509.50;;;26.44;41.90
79589;BME280;69067;51.930;4.492;2023-07-20T04:03:21;101511.63;;;26.48;41.51
79589;BME280;69067;51.930;4.492;2023-07-20T04:05:50;101508.47;;;26.38;42.63
79589;BME280;69067;51.930;4.492;2023-07-20T04:08:15;101514.75;;;26.52;42.62
79589;BME280;69067;51.930;4.492;2023-07-20T04:10:44;101510.78;;;26.48;41.52
79589;BME280;69067;51.930;4.492;2023-07-20T04:13:11;101508.47;;;26.51;41.55
79589;BME280;69067;51.930;4.492;2023-07-20T04:15:37;101511.00;;;26.46;42.40
79589;BME280;69067;51.930;4.492;2023-07-20T04:18:02;101512.25;;;26.50;41.60
79589;BME280;69067;51.930;4.492;2023-07-20T04:20:28;101511.84;;;26.53;41.56
79589;BME280;69067;51.930;4.492;2023-07-20T04:22:54;101515.19;;;26.49;41.59
79589;BME280;69067;51.930;4.492;2023-07-20T04:25:20;101513.94;;;26.51;42.19
79589;BME280;69067;51.930;4.492;2023-07-20T04:27:45;101513.53;;;26.48;42.30
79589;BME280;69067;51.930;4.492;2023-07-20T04:30:12;101509.31;;;26.52;42.14
79589;BME280;69067;51.930;4.492;2023-07-20T04:32:39;101504.91;;;26.44;41.84
79589;BME280;69067;51.930;4.492;2023-07-20T04:35:18;101509.50;;;26.44;42.32
79589;BME280;69067;51.930;4.492;2023-07-20T04:37:50;101512.69;;;26.47;41.81
79589;BME280;69067;51.930;4.492;2023-07-20T04:40:16;101503.66;;;26.47;41.85
79589;BME280;69067;51.930;4.492;2023-07-20T04:42:42;101508.69;;;26.43;41.58
79589;BME280;69067;51.930;4.492;2023-07-20T04:45:08;101503.22;;;26.43;42.33
79589;BME280;69067;51.930;4.492;2023-07-20T04:47:34;101509.72;;;26.42;41.85
79589;BME280;69067;51.930;4.492;2023-07-20T04:50:00;101514.38;;;26.48;42.07
79589;BME280;69067;51.930;4.492;2023-07-20T04:52:25;101519.41;;;26.38;41.91
79589;BME280;69067;51.930;4.492;2023-07-20T04:54:51;101519.00;;;26.41;42.52
79589;BME280;69067;51.930;4.492;2023-07-20T04:57:17;101512.44;;;26.42;41.84
79589;BME280;69067;51.930;4.492;2023-07-20T04:59:42;101527.59;;;26.45;41.75
79589;BME280;69067;51.930;4.492;2023-07-20T05:02:08;101526.75;;;26.44;42.38
79589;BME280;69067;51.930;4.492;2023-07-20T05:04:34;101522.13;;;26.45;42.09
79589;BME280;69067;51.930;4.492;2023-07-20T05:07:00;101527.19;;;26.48;41.67
79589;BME280;69067;51.930;4.492;2023-07-20T05:09:25;101526.09;;;26.42;41.48
79589;BME280;69067;51.930;4.492;2023-07-20T05:11:52;101529.69;;;26.43;41.99
79589;BME280;69067;51.930;4.492;2023-07-20T05:14:19;101515.81;;;26.38;42.34
79589;BME280;69067;51.930;4.492;2023-07-20T05:16:45;101524.03;;;26.38;42.01
79589;BME280;69067;51.930;4.492;2023-07-20T05:19:10;101525.91;;;26.44;42.04
79589;BME280;69067;51.930;4.492;2023-07-20T05:21:36;101517.31;;;26.40;41.85
79589;BME280;69067;51.930;4.492;2023-07-20T05:24:02;101512.03;;;26.39;42.08
79589;BME280;69067;51.930;4.492;2023-07-20T05:26:27;101524.03;;;26.38;41.91
79589;BME280;69067;51.930;4.492;2023-07-20T05:28:53;101520.44;;;26.44;42.07
79589;BME280;69067;51.930;4.492;2023-07-20T05:31:19;101519.19;;;26.46;42.27
79589;BME280;69067;51.930;4.492;2023-07-20T05:33:45;101516.47;;;26.46;42.33
79589;BME280;69067;51.930;4.492;2023-07-20T05:36:12;101512.88;;;26.59;41.29
79589;BME280;69067;51.930;4.492;2023-07-20T05:38:38;101514.34;;;26.55;41.33
79589;BME280;69067;51.930;4.492;2023-07-20T05:41:03;101520.03;;;26.60;42.05
79589;BME280;69067;51.930;4.492;2023-07-20T05:43:29;101516.84;;;26.56;41.37
79589;BME280;69067;51.930;4.492;2023-07-20T05:45:55;101520.84;;;26.67;41.39
79589;BME280;69067;51.930;4.492;2023-07-20T05:48:21;101516.63;;;26.71;41.72
79589;BME280;69067;51.930;4.492;2023-07-20T05:50:47;101517.06;;;26.61;41.15
79589;BME280;69067;51.930;4.492;2023-07-20T05:53:13;101521.06;;;26.52;41.76
79589;BME280;69067;51.930;4.492;2023-07-20T05:55:38;101528.22;;;26.60;41.10
79589;BME280;69067;51.930;4.492;2023-07-20T05:58:05;101517.91;;;26.62;41.28
79589;BME280;69067;51.930;4.492;2023-07-20T06:00:31;101532.81;;;26.66;40.70
79589;BME280;69067;51.930;4.492;2023-07-20T06:02:57;101527.56;;;26.64;41.11
79589;BME280;69067;51.930;4.492;2023-07-20T06:05:23;101522.53;;;26.61;41.74
79589;BME280;69067;51.930;4.492;2023-07-20T06:07:49;101525.88;;;26.70;41.27
79589;BME280;69067;51.930;4.492;2023-07-20T06:10:15;101530.50;;;26.63;41.66
79589;BME280;69067;51.930;4.492;2023-07-20T06:12:41;101533.03;;;26.64;40.97
79589;BME280;69067;51.930;4.492;2023-07-20T06:15:24;101534.91;;;26.64;41.45
79589;BME280;69067;51.930;4.492;2023-07-20T06:17:55;101528.22;;;26.60;40.93
79589;BME280;69067;51.930;4.492;2023-07-20T06:20:22;101528.41;;;26.58;41.16
79589;BME280;69067;51.930;4.492;2023-07-20T06:22:48;101534.28;;;26.55;41.29
79589;BME280;69067;51.930;4.492;2023-07-20T06:25:13;101538.09;;;26.54;41.63
79589;BME280;69067;51.930;4.492;2023-07-20T06:27:39;101535.78;;;26.58;41.04
79589;BME280;69067;51.930;4.492;2023-07-20T06:30:05;101534.06;;;26.70;41.25
79589;BME280;69067;51.930;4.492;2023-07-20T06:32:31;101547.34;;;26.40;41.71
79589;BME280;69067;51.930;4.492;2023-07-20T06:34:57;101548.59;;;26.38;42.21
79589;BME280;69067;51.930;4.492;2023-07-20T06:37:23;101538.72;;;26.50;41.48
79589;BME280;69067;51.930;4.492;2023-07-20T06:39:49;101547.56;;;26.45;41.89
79589;BME280;69067;51.930;4.492;2023-07-20T06:42:15;101550.28;;;26.45;41.79
79589;BME280;69067;51.930;4.492;2023-07-20T06:44:41;101542.50;;;26.42;41.52
79589;BME280;69067;51.930;4.492;2023-07-20T06:47:06;101546.28;;;26.35;41.63
79589;BME280;69067;51.930;4.492;2023-07-20T06:49:33;101538.72;;;26.37;42.25
79589;BME280;69067;51.930;4.492;2023-07-20T06:51:58;101548.19;;;26.47;41.88
79589;BME280;69067;51.930;4.492;2023-07-20T06:54:24;101543.13;;;26.44;41.60
79589;BME280;69067;51.930;4.492;2023-07-20T06:56:50;101549.63;;;26.50;42.06
79589;BME280;69067;51.930;4.492;2023-07-20T06:59:16;101545.47;;;26.41;41.58
79589;BME280;69067;51.930;4.492;2023-07-20T07:01:42;101544.41;;;26.48;41.81
79589;BME280;69067;51.930;4.492;2023-07-20T07:04:08;101552.56;;;26.42;42.20
79589;BME280;69067;51.930;4.492;2023-07-20T07:06:33;101552.56;;;26.42;41.42
79589;BME280;69067;51.930;4.492;2023-07-20T07:09:00;101549.63;;;26.50;40.99
79589;BME280;69067;51.930;4.492;2023-07-20T07:11:25;101554.06;;;26.38;41.24
79589;BME280;69067;51.930;4.492;2023-07-20T07:13:51;101545.66;;;26.46;41.65
79589;BME280;69067;51.930;4.492;2023-07-20T07:16:17;101549.44;;;26.38;41.65
79589;BME280;69067;51.930;4.492;2023-07-20T07:18:45;101555.75;;;26.45;41.51
79589;BME280;69067;51.930;4.492;2023-07-20T07:21:11;101555.34;;;26.55;41.55
79589;BME280;69067;51.930;4.492;2023-07-20T07:23:40;101555.53;;;26.47;41.53
79589;BME280;69067;51.930;4.492;2023-07-20T07:26:06;101550.69;;;26.49;41.66
79589;BME280;69067;51.930;4.492;2023-07-20T07:28:32;101552.16;;;26.45;41.02
79589;BME280;69067;51.930;4.492;2023-07-20T07:30:57;101561.19;;;26.39;41.19
79589;BME280;69067;51.930;4.492;2023-07-20T07:33:23;101548.19;;;26.41;41.32
79589;BME280;69067;51.930;4.492;2023-07-20T07:35:50;101555.09;;;26.50;40.91
79589;BME280;69067;51.930;4.492;2023-07-20T07:38:18;101557.22;;;26.41;41.31
79589;BME280;69067;51.930;4.492;2023-07-20T07:40:45;101558.03;;;26.35;41.96
79589;BME280;69067;51.930;4.492;2023-07-20T07:43:10;101559.31;;;26.39;41.02
79589;BME280;69067;51.930;4.492;2023-07-20T07:45:37;101556.38;;;26.41;41.42
79589;BME280;69067;51.930;4.492;2023-07-20T07:48:04;101556.78;;;26.44;41.34
79589;BME280;69067;51.930;4.492;2023-07-20T07:50:34;101553.00;;;26.45;41.65
79589;BME280;69067;51.930;4.492;2023-07-20T07:53:00;101553.84;;;26.72;40.76
79589;BME280;69067;51.930;4.492;2023-07-20T07:55:26;101557.22;;;26.41;41.40
79589;BME280;69067;51.930;4.492;2023-07-20T07:57:52;101556.38;;;26.41;40.95
79589;BME280;69067;51.930;4.492;2023-07-20T08:00:18;101552.81;;;26.53;40.79
79589;BME280;69067;51.930;4.492;2023-07-20T08:02:45;101546.91;;;26.50;40.37
79589;BME280;69067;51.930;4.492;2023-07-20T08:05:13;101558.91;;;26.69;40.02
79589;BME280;69067;51.930;4.492;2023-07-20T08:07:40;101557.44;;;26.46;40.71
79589;BME280;69067;51.930;4.492;2023-07-20T08:10:07;101549.63;;;26.37;40.59
79589;BME280;69067;51.930;4.492;2023-07-20T08:12:33;101550.91;;;26.54;39.44
79589;BME280;69067;51.930;4.492;2023-07-20T08:14:59;101567.31;;;26.47;39.56
79589;BME280;69067;51.930;4.492;2023-07-20T08:17:25;101557.44;;;26.40;40.66
79589;BME280;69067;51.930;4.492;2023-07-20T08:19:51;101550.91;;;26.54;39.51
79589;BME280;69067;51.930;4.492;2023-07-20T08:22:17;101561.00;;;26.66;40.24
79589;BME280;69067;51.930;4.492;2023-07-20T08:24:44;101551.75;;;26.48;40.07
79589;BME280;69067;51.930;4.492;2023-07-20T08:27:09;101563.09;;;26.51;40.18
79589;BME280;69067;51.930;4.492;2023-07-20T08:29:36;101550.91;;;26.47;39.96
79589;BME280;69067;51.930;4.492;2023-07-20T08:32:02;101561.84;;;26.47;40.46
79589;BME280;69067;51.930;4.492;2023-07-20T08:34:30;101563.94;;;26.45;39.32
79589;BME280;69067;51.930;4.492;2023-07-20T08:36:56;101563.94;;;26.52;39.64
79589;BME280;69067;51.930;4.492;2023-07-20T08:39:23;101568.34;;;26.53;39.35
79589;BME280;69067;51.930;4.492;2023-07-20T08:41:50;101559.91;;;26.35;40.18
79589;BME280;69067;51.930;4.492;2023-07-20T08:44:17;101558.88;;;26.29;39.21
79589;BME280;69067;51.930;4.492;2023-07-20T08:46:43;101560.13;;;26.20;39.52
79589;BME280;69067;51.930;4.492;2023-07-20T08:49:11;101558.47;;;26.25;39.63
79589;BME280;69067;51.930;4.492;2023-07-20T08:51:41;101569.56;;;26.17;39.40
79589;BME280;69067;51.930;4.492;2023-07-20T08:54:09;101577.34;;;26.20;39.52
79589;BME280;69067;51.930;4.492;2023-07-20T08:56:36;101573.38;;;26.43;38.11
79589;BME280;69067;51.930;4.492;2023-07-20T08:59:02;101565.16;;;26.23;39.56
79589;BME280;69067;51.930;4.492;2023-07-20T09:01:29;101569.41;;;26.25;38.63
79589;BME280;69067;51.930;4.492;2023-07-20T09:03:55;101563.91;;;26.19;38.66
79589;BME280;69067;51.930;4.492;2023-07-20T09:06:22;101561.84;;;26.54;38.71
79589;BME280;69067;51.930;4.492;2023-07-20T09:08:48;101562.66;;;26.28;39.01
79589;BME280;69067;51.930;4.492;2023-07-20T09:11:14;101565.97;;;26.23;39.38
79589;BME280;69067;51.930;4.492;2023-07-20T09:13:40;101558.44;;;26.19;39.51
79589;BME280;69067;51.930;4.492;2023-07-20T09:16:06;101561.38;;;26.17;38.49
79589;BME280;69067;51.930;4.492;2023-07-20T09:18:32;101552.34;;;26.17;39.20
79589;BME280;69067;51.930;4.492;2023-07-20T09:21:04;101560.38;;;26.38;38.44
79589;BME280;69067;51.930;4.492;2023-07-20T09:23:37;101544.53;;;26.14;38.81
79589;BME280;69067;51.930;4.492;2023-07-20T09:26:13;101558.03;;;26.42;38.53
79589;BME280;69067;51.930;4.492;2023-07-20T09:28:59;101562.41;;;26.23;39.17
79589;BME280;69067;51.930;4.492;2023-07-20T09:31:24;101563.72;;;26.34;38.69
79589;BME280;69067;51.930;4.492;2023-07-20T09:33:53;101556.78;;;26.24;37.92
79589;BME280;69067;51.930;4.492;2023-07-20T09:36:19;101553.38;;;26.16;38.47
79589;BME280;69067;51.930;4.492;2023-07-20T09:38:45;101563.09;;;26.32;37.76
79589;BME280;69067;51.930;4.492;2023-07-20T09:41:15;101551.72;;;26.28;38.28
79589;BME280;69067;51.930;4.492;2023-07-20T09:43:42;101551.72;;;26.28;38.04
79589;BME280;69067;51.930;4.492;2023-07-20T09:46:08;101551.53;;;26.30;38.50
79589;BME280;69067;51.930;4.492;2023-07-20T09:48:34;101552.81;;;26.27;38.47
79589;BME280;69067;51.930;4.492;2023-07-20T09:50:59;101547.06;;;26.15;38.26
79589;BME280;69067;51.930;4.492;2023-07-20T09:53:27;101542.09;;;26.45;37.84
79589;BME280;69067;51.930;4.492;2023-07-20T09:55:54;101547.13;;;26.28;38.12
79589;BME280;69067;51.930;4.492;2023-07-20T09:58:21;101548.38;;;26.46;37.86
79589;BME280;69067;51.930;4.492;2023-07-20T10:00:51;101548.81;;;26.30;38.32
79589;BME280;69067;51.930;4.492;2023-07-20T10:03:28;101551.97;;;26.40;37.94
79589;BME280;69067;51.930;4.492;2023-07-20T10:06:03;101546.91;;;26.37;37.99
79589;BME280;69067;51.930;4.492;2023-07-20T10:08:35;101551.53;;;26.43;38.42
79589;BME280;69067;51.930;4.492;2023-07-20T10:11:07;101551.97;;;26.46;37.88
79589;BME280;69067;51.930;4.492;2023-07-20T10:13:38;101549.63;;;26.50;38.37
79589;BME280;69067;51.930;4.492;2023-07-20T10:16:11;101556.16;;;26.42;37.67
79589;BME280;69067;51.930;4.492;2023-07-20T10:18:50;101548.38;;;26.46;38.70
79589;BME280;69067;51.930;4.492;2023-07-20T10:21:21;101545.22;;;26.42;38.22
79589;BME280;69067;51.930;4.492;2023-07-20T10:23:50;101547.13;;;26.55;37.76
79589;BME280;69067;51.930;4.492;2023-07-20T10:26:16;101547.75;;;26.50;38.05
79589;BME280;69067;51.930;4.492;2023-07-20T10:28:42;101544.19;;;26.50;37.37
79589;BME280;69067;51.930;4.492;2023-07-20T10:31:13;101543.78;;;26.53;37.40
79589;BME280;69067;51.930;4.492;2023-07-20T10:33:41;101546.69;;;26.51;37.53
79589;BME280;69067;51.930;4.492;2023-07-20T10:36:07;101536.63;;;26.52;38.32
79589;BME280;69067;51.930;4.492;2023-07-20T10:41:22;101540.19;;;26.52;37.83
79589;BME280;69067;51.930;4.492;2023-07-20T10:44:01;101534.09;;;26.50;37.95
79589;BME280;69067;51.930;4.492;2023-07-20T10:46:45;101534.09;;;26.44;38.37
79589;BME280;69067;51.930;4.492;2023-07-20T10:49:13;101534.75;;;26.26;39.06
79589;BME280;69067;51.930;4.492;2023-07-20T10:51:45;101527.56;;;26.18;38.85
79589;BME280;69067;51.930;4.492;2023-07-20T10:56:48;101528.22;;;26.47;37.75
79589;BME280;69067;51.930;4.492;2023-07-20T10:59:36;101527.59;;;26.45;37.73
79589;BME280;69067;51.930;4.492;2023-07-20T11:02:07;101525.06;;;26.37;38.07
79589;BME280;69067;51.930;4.492;2023-07-20T11:04:41;101529.06;;;26.34;38.12
79589;BME280;69067;51.930;4.492;2023-07-20T11:07:08;101523.38;;;26.49;38.26
79589;BME280;69067;51.930;4.492;2023-07-20T11:09:35;101522.09;;;26.58;37.64
79589;BME280;69067;51.930;4.492;2023-07-20T11:12:15;101527.38;;;26.53;37.76
79589;BME280;69067;51.930;4.492;2023-07-20T11:14:52;101525.28;;;26.55;37.89
79589;BME280;69067;51.930;4.492;2023-07-20T11:17:19;101524.03;;;26.38;38.05
79589;BME280;69067;51.930;4.492;2023-07-20T11:19:48;101517.50;;;26.52;37.41
79589;BME280;69067;51.930;4.492;2023-07-20T11:22:19;101525.69;;;26.58;37.52
79589;BME280;69067;51.930;4.492;2023-07-20T11:24:45;101513.28;;;26.43;36.96
79589;BME280;69067;51.930;4.492;2023-07-20T11:27:11;101513.94;;;26.45;36.93
79589;BME280;69067;51.930;4.492;2023-07-20T11:29:37;101510.34;;;26.44;37.13
79589;BME280;69067;51.930;4.492;2023-07-20T11:32:04;101513.50;;;26.54;36.83
79589;BME280;69067;51.930;4.492;2023-07-20T11:34:31;101517.31;;;26.34;37.88
79589;BME280;69067;51.930;4.492;2023-07-20T11:36:58;101498.16;;;26.20;37.88
79589;BME280;69067;51.930;4.492;2023-07-20T11:39:25;101495.00;;;26.23;38.00
79589;BME280;69067;51.930;4.492;2023-07-20T11:41:53;101491.44;;;26.16;38.43
79589;BME280;69067;51.930;4.492;2023-07-20T11:44:21;101495.03;;;26.37;37.72
79589;BME280;69067;51.930;4.492;2023-07-20T11:47:10;101500.09;;;26.26;37.15
79589;BME280;69067;51.930;4.492;2023-07-20T11:49:38;101500.47;;;26.23;37.05
79589;BME280;69067;51.930;4.492;2023-07-20T11:52:11;101500.28;;;26.51;36.64
79589;BME280;69067;51.930;4.492;2023-07-20T11:54:42;101502.81;;;26.40;36.82
79589;BME280;69067;51.930;4.492;2023-07-20T11:57:20;101494.81;;;26.38;37.15
79589;BME280;69067;51.930;4.492;2023-07-20T11:59:56;101502.59;;;26.48;37.16
79589;BME280;69067;51.930;4.492;2023-07-20T12:02:27;101492.72;;;26.34;37.23
79589;BME280;69067;51.930;4.492;2023-07-20T12:04:57;101482.63;;;26.60;35.58
79589;BME280;69067;51.930;4.492;2023-07-20T12:07:25;101478.03;;;26.48;35.97
79589;BME280;69067;51.930;4.492;2023-07-20T12:10:09;101484.72;;;26.45;35.89
79589;BME280;69067;51.930;4.492;2023-07-20T12:12:41;101493.78;;;26.33;36.54
79589;BME280;69067;51.930;4.492;2023-07-20T12:15:20;101493.78;;;26.46;35.63
79589;BME280;69067;51.930;4.492;2023-07-20T12:17:53;101488.72;;;26.36;36.52
79589;BME280;69067;51.930;4.492;2023-07-20T12:20:29;101486.63;;;26.32;36.67
79589;BME280;69067;51.930;4.492;2023-07-20T12:23:00;101485.59;;;26.39;36.09
79589;BME280;69067;51.930;4.492;2023-07-20T12:25:39;101491.03;;;26.46;36.16
79589;BME280;69067;51.930;4.492;2023-07-20T12:28:08;101489.34;;;26.45;35.44
79589;BME280;69067;51.930;4.492;2023-07-20T12:30:34;101488.94;;;26.35;36.09
79589;BME280;69067;51.930;4.492;2023-07-20T12:33:02;101487.28;;;26.34;36.19
79589;BME280;69067;51.930;4.492;2023-07-20T12:35:29;101487.47;;;26.32;36.30
79589;BME280;69067;51.930;4.492;2023-07-20T12:37:56;101487.03;;;26.42;36.01
79589;BME280;69067;51.930;4.492;2023-07-20T12:40:22;101485.97;;;26.56;35.81
79589;BME280;69067;51.930;4.492;2023-07-20T12:42:47;101476.53;;;26.45;35.94
79589;BME280;69067;51.930;4.492;2023-07-20T12:45:14;101476.34;;;26.47;35.89
79589;BME280;69067;51.930;4.492;2023-07-20T12:47:40;101477.38;;;26.39;36.47
79589;BME280;69067;51.930;4.492;2023-07-20T12:50:08;101480.72;;;26.35;36.44
79589;BME280;69067;51.930;4.492;2023-07-20T12:52:39;101477.38;;;26.39;36.43
79589;BME280;69067;51.930;4.492;2023-07-20T12:55:07;101481.16;;;26.45;36.60
79589;BME280;69067;51.930;4.492;2023-07-20T12:57:34;101467.72;;;26.43;36.42
79589;BME280;69067;51.930;4.492;2023-07-20T13:00:02;101468.75;;;26.36;36.21
79589;BME280;69067;51.930;4.492;2023-07-20T13:02:30;101457.16;;;26.66;35.95
79589;BME280;69067;51.930;4.492;2023-07-20T13:04:57;101460.97;;;26.52;36.08
79589;BME280;69067;51.930;4.492;2023-07-20T13:07:37;101459.94;;;26.47;36.13